createdAt,value
2019-05-09T00:01:14.819Z,53.70
2019-05-09T00:03:44.402Z,53.70
2019-05-09T00:06:13.937Z,53.60
2019-05-09T00:08:44.258Z,54.10
2019-05-09T00:11:14.751Z,53.50
2019-05-09T00:13:44.237Z,53.60
2019-05-09T00:16:14.507Z,53.50
2019-05-09T00:18:44.328Z,53.50
2019-05-09T00:21:21.297Z,53.50
2019-05-09T00:23:50.520Z,54.30
2019-05-09T00:26:19.824Z,53.60
2019-05-09T00:28:53.356Z,53.80
2019-05-09T00:31:30.954Z,53.80
2019-05-09T00:34:04.110Z,53.90
2019-05-09T00:36:33.588Z,53.90
2019-05-09T00:39:04.081Z,53.90
2019-05-09T00:41:33.488Z,53.80
2019-05-09T00:44:13.854Z,53.80
2019-05-09T00:47:05.272Z,53.80
2019-05-09T00:49:34.602Z,53.60
2019-05-09T00:52:03.885Z,53.70
2019-05-09T00:54:33.585Z,53.80
2019-05-09T00:57:03.304Z,53.80
2019-05-09T00:59:33.265Z,54.00
2019-05-09T01:02:03.902Z,54.10
2019-05-09T01:04:33.479Z,54.30
2019-05-09T01:07:03.586Z,54.40
2019-05-09T01:09:33.465Z,54.70
2019-05-09T01:12:11.219Z,54.80
2019-05-09T01:14:40.498Z,54.80
2019-05-09T01:17:09.692Z,55.00
2019-05-09T01:19:38.938Z,55.10
2019-05-09T01:22:08.137Z,55.30
2019-05-09T01:24:37.302Z,55.50
2019-05-09T01:27:06.473Z,55.70
2019-05-09T01:29:36.452Z,55.90
2019-05-09T01:32:14.384Z,56.20
2019-05-09T01:34:43.722Z,56.40
2019-05-09T01:37:14.134Z,56.50
2019-05-09T01:39:44.133Z,56.60
2019-05-09T01:42:13.832Z,57.00
2019-05-09T01:44:44.072Z,57.00
2019-05-09T01:47:14.079Z,57.20
2019-05-09T01:49:44.705Z,57.40
2019-05-09T01:52:13.964Z,57.40
2019-05-09T01:54:44.791Z,57.70
2019-05-09T01:57:13.958Z,58.00
2019-05-09T01:59:44.317Z,58.20
2019-05-09T02:02:19.629Z,58.30
2019-05-09T02:04:48.855Z,58.40
2019-05-09T02:07:18.011Z,58.50
2019-05-09T02:09:47.617Z,58.70
2019-05-09T02:12:16.869Z,59.00
2019-05-09T02:15:13.088Z,59.00
2019-05-09T02:17:58.859Z,59.10
2019-05-09T02:20:20.033Z,59.00
2019-05-09T02:22:49.307Z,59.70
2019-05-09T02:25:18.609Z,59.30
2019-05-09T02:27:47.774Z,59.40
2019-05-09T02:30:18.366Z,59.60
2019-05-09T02:32:47.596Z,59.70
2019-05-09T02:35:16.985Z,59.70
2019-05-09T02:37:49.530Z,59.80
2019-05-09T02:40:18.806Z,60.00
2019-05-09T02:42:49.071Z,59.90
2019-05-09T02:45:19.934Z,59.90
2019-05-09T02:47:49.256Z,60.00
2019-05-09T02:50:19.536Z,60.20
2019-05-09T02:52:49.015Z,60.40
2019-05-09T02:55:18.726Z,60.30
2019-05-09T02:57:49.611Z,60.50
2019-05-09T03:00:32.666Z,60.70
2019-05-09T03:03:09.502Z,60.90
2019-05-09T03:05:39.026Z,60.90
2019-05-09T03:08:09.984Z,60.90
2019-05-09T03:10:39.302Z,60.90
2019-05-09T03:13:09.260Z,60.80
2019-05-09T03:15:39.533Z,60.70
2019-05-09T03:18:09.388Z,60.70
2019-05-09T03:21:00.855Z,60.60
2019-05-09T03:23:30.190Z,60.60
2019-05-09T03:25:59.541Z,60.50
2019-05-09T03:28:54.028Z,60.50
2019-05-09T03:31:23.997Z,60.50
2019-05-09T03:33:53.289Z,60.30
2019-05-09T03:36:22.569Z,60.30
2019-05-09T03:38:51.807Z,60.40
2019-05-09T03:41:21.099Z,60.40
2019-05-09T03:43:50.396Z,60.50
2019-05-09T03:46:35.584Z,60.70
2019-05-09T03:49:07.498Z,61.00
2019-05-09T03:51:37.970Z,61.00
2019-05-09T03:54:08.030Z,61.00
2019-05-09T03:56:41.265Z,61.00
2019-05-09T03:59:10.477Z,61.20
2019-05-09T04:01:39.693Z,61.10
2019-05-09T04:04:08.996Z,61.30
2019-05-09T04:06:39.133Z,61.50
2019-05-09T04:09:08.677Z,61.70
2019-05-09T04:11:38.234Z,61.90
2019-05-09T04:14:11.465Z,62.10
2019-05-09T04:16:52.171Z,62.20
2019-05-09T04:19:21.322Z,62.40
2019-05-09T04:21:50.499Z,62.20
2019-05-09T04:24:19.873Z,62.40
2019-05-09T04:26:57.639Z,62.60
2019-05-09T04:29:28.542Z,62.70
2019-05-09T04:31:57.931Z,62.90
2019-05-09T04:34:27.648Z,62.90
2019-05-09T04:36:57.671Z,62.90
2019-05-09T04:39:28.412Z,63.00
2019-05-09T04:42:05.548Z,63.10
2019-05-09T04:44:40.373Z,63.20
2019-05-09T04:47:09.840Z,63.30
2019-05-09T04:49:47.933Z,63.30
2019-05-09T04:52:18.027Z,63.30
2019-05-09T04:54:48.490Z,63.30
2019-05-09T04:57:18.016Z,63.50
2019-05-09T04:59:47.653Z,63.50
2019-05-09T05:02:38.062Z,63.60
2019-05-09T05:05:07.978Z,63.70
2019-05-09T05:07:37.699Z,63.60
2019-05-09T05:10:08.937Z,63.50
2019-05-09T05:12:38.497Z,63.50
2019-05-09T05:15:09.046Z,63.40
2019-05-09T05:17:38.314Z,63.30
2019-05-09T05:20:10.625Z,63.20
2019-05-09T05:22:47.753Z,63.00
2019-05-09T05:25:17.944Z,62.80
2019-05-09T05:27:47.668Z,62.60
2019-05-09T05:30:17.942Z,62.70
2019-05-09T05:32:53.864Z,62.80
2019-05-09T05:35:37.594Z,62.70
2019-05-09T05:38:08.511Z,63.50
2019-05-09T05:40:45.629Z,62.60
2019-05-09T05:43:08.897Z,62.50
2019-05-09T05:45:47.948Z,61.90
2019-05-09T05:48:21.531Z,61.50
2019-05-09T05:50:50.693Z,61.00
2019-05-09T05:53:27.792Z,60.50
2019-05-09T05:56:02.273Z,60.10
2019-05-09T05:58:29.834Z,59.80
2019-05-09T06:00:59.171Z,59.30
2019-05-09T06:03:28.455Z,59.00
2019-05-09T06:05:58.475Z,58.90
2019-05-09T06:08:28.009Z,59.00
2019-05-09T06:10:57.723Z,58.70
2019-05-09T06:13:27.644Z,58.60
2019-05-09T06:16:12.648Z,58.50
2019-05-09T06:19:08.808Z,58.20
2019-05-09T06:21:37.561Z,58.30
2019-05-09T06:24:08.572Z,58.20
2019-05-09T06:26:38.944Z,58.00
2019-05-09T06:29:08.263Z,58.00
2019-05-09T06:31:37.703Z,57.90
2019-05-09T06:34:08.397Z,57.70
2019-05-09T06:36:39.090Z,57.50
2019-05-09T06:39:09.955Z,57.20
2019-05-09T06:41:39.193Z,57.00
2019-05-09T06:44:23.795Z,57.20
2019-05-09T06:47:08.098Z,57.00
2019-05-09T06:49:39.183Z,56.90
2019-05-09T06:52:08.860Z,57.00
2019-05-09T06:54:43.378Z,57.10
2019-05-09T06:57:14.200Z,57.00
2019-05-09T06:59:43.563Z,56.70
2019-05-09T07:02:28.501Z,56.70
2019-05-09T07:05:11.944Z,56.60
2019-05-09T07:07:53.323Z,56.30
2019-05-09T07:10:22.546Z,56.10
2019-05-09T07:12:53.766Z,55.90
2019-05-09T07:15:22.954Z,55.60
2019-05-09T07:17:52.144Z,55.20
2019-05-09T07:20:21.534Z,54.90
2019-05-09T07:22:53.535Z,54.60
2019-05-09T07:25:28.842Z,54.70
2019-05-09T07:27:58.774Z,54.50
2019-05-09T07:30:48.426Z,54.40
2019-05-09T07:33:39.503Z,54.80
2019-05-09T07:36:08.864Z,54.10
2019-05-09T07:38:38.560Z,54.20
2019-05-09T07:41:08.805Z,54.10
2019-05-09T07:43:38.726Z,53.90
2019-05-09T07:46:29.051Z,53.60
2019-05-09T07:48:59.245Z,53.20
2019-05-09T07:51:28.507Z,53.30
2019-05-09T07:53:58.881Z,52.90
2019-05-09T07:56:28.649Z,52.80
2019-05-09T07:58:58.643Z,52.50
2019-05-09T08:01:28.239Z,52.50
2019-05-09T08:03:58.453Z,52.30
2019-05-09T08:06:28.840Z,51.90
2019-05-09T08:08:58.472Z,51.60
2019-05-09T08:11:28.718Z,51.40
2019-05-09T08:13:58.631Z,51.30
2019-05-09T08:16:28.038Z,51.20
2019-05-09T08:18:57.890Z,51.10
2019-05-09T08:21:27.801Z,50.70
2019-05-09T08:23:57.964Z,50.60
2019-05-09T08:26:29.955Z,50.50
2019-05-09T08:28:58.739Z,50.50
2019-05-09T08:31:30.119Z,50.50
2019-05-09T08:33:59.661Z,50.30
2019-05-09T08:36:32.042Z,50.10
2019-05-09T08:39:01.417Z,49.90
2019-05-09T08:41:30.734Z,49.60
2019-05-09T08:44:01.834Z,49.40
2019-05-09T08:46:31.156Z,49.30
2019-05-09T08:49:03.227Z,49.20
2019-05-09T08:51:55.989Z,49.40
2019-05-09T08:54:34.102Z,49.30
2019-05-09T08:57:03.483Z,49.10
2019-05-09T08:59:33.816Z,48.90
2019-05-09T09:02:15.364Z,48.60
2019-05-09T09:04:34.282Z,48.90
2019-05-09T09:07:03.585Z,48.80
2019-05-09T09:09:32.792Z,48.60
2019-05-09T09:12:02.090Z,48.30
2019-05-09T09:14:31.412Z,48.20
2019-05-09T09:17:00.721Z,47.90
2019-05-09T09:19:30.131Z,47.70
2019-05-09T09:22:00.660Z,47.50
2019-05-09T09:24:30.081Z,47.30
2019-05-09T09:27:00.320Z,46.90
2019-05-09T09:29:29.702Z,46.70
2019-05-09T09:31:58.874Z,46.80
2019-05-09T09:34:30.053Z,46.60
2019-05-09T09:37:03.250Z,46.50
2019-05-09T09:39:31.407Z,46.50
2019-05-09T09:42:00.680Z,46.60
2019-05-09T09:44:30.037Z,46.50
2019-05-09T09:46:59.265Z,46.70
2019-05-09T09:49:55.123Z,46.60
2019-05-09T09:52:23.367Z,46.50
2019-05-09T09:54:52.741Z,46.50
2019-05-09T09:57:22.092Z,46.20
2019-05-09T09:59:55.089Z,45.80
2019-05-09T10:02:33.209Z,45.60
2019-05-09T10:05:02.468Z,45.50
2019-05-09T10:07:33.761Z,45.70
2019-05-09T10:10:03.060Z,45.60
2019-05-09T10:12:32.471Z,45.40
2019-05-09T10:15:19.503Z,45.20
2019-05-09T10:18:07.463Z,45.10
2019-05-09T10:20:48.539Z,44.90
2019-05-09T10:23:20.761Z,44.90
2019-05-09T10:25:48.523Z,44.60
2019-05-09T10:28:21.317Z,44.40
2019-05-09T10:30:48.835Z,44.00
2019-05-09T10:33:18.063Z,43.90
2019-05-09T10:35:47.980Z,43.50
2019-05-09T10:38:18.415Z,43.80
2019-05-09T10:40:48.744Z,43.00
2019-05-09T10:43:38.899Z,43.00
2019-05-09T10:46:23.884Z,43.00
2019-05-09T10:48:59.063Z,43.40
2019-05-09T10:51:28.353Z,43.40
2019-05-09T10:53:58.736Z,43.50
2019-05-09T10:56:28.322Z,43.50
2019-05-09T10:58:58.481Z,44.10
2019-05-09T11:01:29.574Z,43.50
2019-05-09T11:03:59.402Z,43.40
2019-05-09T11:06:29.127Z,43.60
2019-05-09T11:08:58.740Z,43.20
2019-05-09T11:11:28.766Z,43.20
2019-05-09T11:13:58.948Z,43.10
2019-05-09T11:16:41.794Z,42.90
2019-05-09T11:19:00.236Z,42.50
2019-05-09T11:21:29.637Z,42.50
2019-05-09T11:23:58.926Z,42.90
2019-05-09T11:26:28.841Z,43.30
2019-05-09T11:28:58.908Z,43.20
2019-05-09T11:31:29.603Z,42.90
2019-05-09T11:33:59.142Z,42.40
2019-05-09T11:36:30.901Z,41.60
2019-05-09T11:39:00.926Z,41.00
2019-05-09T11:41:30.503Z,40.40
2019-05-09T11:43:59.969Z,39.80
2019-05-09T11:46:29.412Z,39.50
2019-05-09T11:48:59.575Z,39.30
2019-05-09T11:51:29.612Z,39.20
2019-05-09T11:54:02.722Z,39.20
2019-05-09T11:56:35.159Z,39.30
2019-05-09T11:59:07.835Z,39.70
2019-05-09T12:01:40.432Z,39.80
2019-05-09T12:04:10.065Z,39.80
2019-05-09T12:06:39.444Z,40.00
2019-05-09T12:09:09.471Z,40.20
2019-05-09T12:11:43.995Z,40.30
2019-05-09T12:14:10.214Z,40.20
2019-05-09T12:16:39.607Z,40.40
2019-05-09T12:19:09.831Z,40.30
2019-05-09T12:21:47.140Z,40.20
2019-05-09T12:24:10.451Z,40.30
2019-05-09T12:26:40.850Z,40.40
2019-05-09T12:29:10.165Z,40.70
2019-05-09T12:31:39.447Z,40.70
2019-05-09T12:34:09.319Z,40.60
2019-05-09T12:36:39.766Z,40.70
2019-05-09T12:39:09.552Z,40.90
2019-05-09T12:41:39.436Z,40.80
2019-05-09T12:44:08.958Z,40.90
2019-05-09T12:46:39.556Z,41.10
2019-05-09T12:49:09.224Z,41.30
2019-05-09T12:51:38.582Z,41.40
2019-05-09T12:54:08.719Z,41.70
2019-05-09T12:56:38.654Z,41.80
2019-05-09T12:59:08.720Z,42.00
2019-05-09T13:01:40.795Z,42.00
2019-05-09T13:04:09.901Z,41.30
2019-05-09T13:06:39.389Z,40.40
2019-05-09T13:09:08.659Z,39.30
2019-05-09T13:11:39.067Z,38.70
2019-05-09T13:14:10.018Z,38.20
2019-05-09T13:16:53.868Z,37.00
2019-05-09T13:19:34.870Z,35.70
2019-05-09T13:22:04.433Z,35.40
2019-05-09T13:24:34.153Z,34.60
2019-05-09T13:27:03.648Z,33.40
2019-05-09T13:29:32.874Z,32.20
2019-05-09T13:32:02.367Z,32.00
2019-05-09T13:34:31.822Z,31.90
2019-05-09T13:37:01.335Z,32.50
2019-05-09T13:39:30.717Z,33.10
2019-05-09T13:42:00.099Z,33.20
2019-05-09T13:44:29.279Z,32.70
2019-05-09T13:46:58.606Z,32.10
2019-05-09T13:49:28.671Z,31.30
2019-05-09T13:52:04.468Z,31.40
2019-05-09T13:54:29.346Z,30.80
2019-05-09T13:57:04.178Z,31.40
2019-05-09T13:59:42.328Z,32.30
2019-05-09T14:02:11.563Z,32.80
2019-05-09T14:04:40.739Z,33.20
2019-05-09T14:07:10.075Z,33.80
2019-05-09T14:09:40.951Z,34.30
2019-05-09T14:12:10.576Z,35.00
2019-05-09T14:14:43.181Z,34.20
2019-05-09T14:17:13.927Z,34.20
2019-05-09T14:19:46.703Z,34.20
2019-05-09T14:22:14.247Z,33.90
2019-05-09T14:24:43.454Z,32.40
2019-05-09T14:27:18.842Z,31.80
2019-05-09T14:29:49.670Z,31.70
2019-05-09T14:32:19.187Z,31.70
2019-05-09T14:34:48.540Z,32.40
2019-05-09T14:37:18.131Z,32.50
2019-05-09T14:39:58.406Z,32.70
2019-05-09T14:42:19.274Z,33.20
2019-05-09T14:44:48.759Z,33.60
2019-05-09T14:47:18.433Z,33.90
2019-05-09T14:49:50.392Z,34.10
2019-05-09T14:52:20.083Z,34.70
2019-05-09T14:54:49.520Z,34.60
2019-05-09T14:57:18.892Z,34.10
2019-05-09T14:59:48.151Z,33.90
2019-05-09T15:02:18.873Z,33.80
2019-05-09T15:04:48.651Z,34.10
2019-05-09T15:07:19.424Z,34.50
2019-05-09T15:09:50.872Z,33.80
2019-05-09T15:12:20.959Z,32.80
2019-05-09T15:14:50.227Z,32.50
2019-05-09T15:17:19.401Z,32.30
2019-05-09T15:19:57.507Z,32.20
2019-05-09T15:22:19.827Z,32.40
2019-05-09T15:25:00.208Z,33.00
2019-05-09T15:27:29.723Z,33.30
2019-05-09T15:29:59.254Z,33.40
2019-05-09T15:32:30.340Z,33.70
2019-05-09T15:34:59.878Z,33.90
2019-05-09T15:37:29.518Z,33.80
2019-05-09T15:39:59.890Z,33.50
2019-05-09T15:42:40.131Z,32.70
2019-05-09T15:45:09.669Z,32.00
2019-05-09T15:47:39.273Z,31.50
2019-05-09T15:50:19.325Z,30.80
2019-05-09T15:52:40.160Z,30.70
2019-05-09T15:55:09.854Z,30.20
2019-05-09T15:57:39.679Z,29.80
2019-05-09T16:00:10.493Z,29.60
2019-05-09T16:02:58.979Z,29.50
2019-05-09T16:05:27.978Z,29.30
2019-05-09T16:07:58.559Z,29.00
2019-05-09T16:10:28.432Z,28.90
2019-05-09T16:13:04.085Z,29.30
2019-05-09T16:15:34.956Z,28.60
2019-05-09T16:18:04.204Z,28.70
2019-05-09T16:20:37.343Z,28.60
2019-05-09T16:23:04.734Z,28.50
2019-05-09T16:25:34.389Z,28.30
2019-05-09T16:28:04.057Z,28.20
2019-05-09T16:30:33.412Z,28.20
2019-05-09T16:33:02.686Z,28.20
2019-05-09T16:35:32.025Z,28.40
2019-05-09T16:38:06.750Z,28.40
2019-05-09T16:40:32.834Z,28.10
2019-05-09T16:43:02.286Z,28.10
2019-05-09T16:45:31.808Z,28.20
2019-05-09T16:48:01.168Z,28.40
2019-05-09T16:50:32.850Z,28.70
2019-05-09T16:53:03.536Z,28.80
2019-05-09T16:55:37.960Z,29.00
2019-05-09T16:58:08.656Z,29.00
2019-05-09T17:00:48.951Z,28.90
2019-05-09T17:03:19.444Z,29.40
2019-05-09T17:05:49.353Z,29.20
2019-05-09T17:08:21.229Z,29.60
2019-05-09T17:10:50.924Z,30.00
2019-05-09T17:13:20.619Z,30.30
2019-05-09T17:15:50.183Z,31.00
2019-05-09T17:18:19.754Z,31.70
2019-05-09T17:21:18.215Z,32.00
2019-05-09T17:23:42.317Z,31.80
2019-05-09T17:26:11.757Z,31.40
2019-05-09T17:28:45.673Z,31.10
2019-05-09T17:31:17.435Z,31.10
2019-05-09T17:33:48.525Z,31.40
2019-05-09T17:36:20.386Z,31.60
2019-05-09T17:38:50.847Z,31.60
2019-05-09T17:41:20.188Z,31.70
2019-05-09T17:43:49.750Z,32.50
2019-05-09T17:46:20.380Z,33.00
2019-05-09T17:48:49.878Z,33.40
2019-05-09T17:51:32.635Z,33.90
2019-05-09T17:53:51.918Z,34.10
2019-05-09T17:56:21.752Z,34.80
2019-05-09T17:59:03.567Z,35.00
2019-05-09T18:01:32.996Z,34.90
2019-05-09T18:04:04.615Z,34.80
2019-05-09T18:06:34.264Z,35.00
2019-05-09T18:09:08.450Z,35.50
2019-05-09T18:11:39.602Z,35.60
2019-05-09T18:14:09.156Z,35.90
2019-05-09T18:16:39.262Z,36.10
2019-05-09T18:19:10.118Z,36.50
2019-05-09T18:21:50.314Z,36.90
2019-05-09T18:24:12.460Z,37.30
2019-05-09T18:26:41.810Z,37.70
2019-05-09T18:29:11.339Z,38.10
2019-05-09T18:32:02.344Z,38.50
2019-05-09T18:34:33.726Z,38.80
2019-05-09T18:37:07.819Z,39.00
2019-05-09T18:39:37.646Z,39.40
2019-05-09T18:42:08.669Z,39.60
2019-05-09T18:44:38.860Z,39.90
2019-05-09T18:47:08.772Z,40.30
2019-05-09T18:49:38.790Z,40.50
2019-05-09T18:52:08.463Z,40.80
2019-05-09T18:54:37.693Z,41.00
2019-05-09T18:57:07.242Z,41.10
2019-05-09T18:59:36.854Z,41.50
2019-05-09T19:02:06.026Z,41.70
2019-05-09T19:04:35.459Z,41.80
2019-05-09T19:07:20.717Z,42.00
2019-05-09T19:09:36.736Z,42.20
2019-05-09T19:12:05.954Z,43.10
2019-05-09T19:14:35.275Z,42.60
2019-05-09T19:17:22.733Z,42.80
2019-05-09T19:20:10.017Z,42.90
2019-05-09T19:22:39.398Z,42.90
2019-05-09T19:25:08.881Z,43.10
2019-05-09T19:27:38.285Z,43.30
2019-05-09T19:30:08.284Z,44.00
2019-05-09T19:32:38.272Z,43.60
2019-05-09T19:35:08.075Z,43.80
2019-05-09T19:37:37.947Z,43.90
2019-05-09T19:40:07.484Z,44.00
2019-05-09T19:42:36.936Z,44.30
2019-05-09T19:45:06.282Z,44.60
2019-05-09T19:47:35.950Z,45.00
2019-05-09T19:50:06.738Z,45.30
2019-05-09T19:52:38.169Z,45.50
2019-05-09T19:55:07.493Z,45.70
2019-05-09T19:57:36.920Z,45.80
2019-05-09T20:00:07.104Z,46.10
2019-05-09T20:02:36.814Z,46.30
2019-05-09T20:05:06.591Z,46.40
2019-05-09T20:07:36.744Z,46.40
2019-05-09T20:10:41.219Z,46.50
2019-05-09T20:13:25.329Z,46.60
2019-05-09T20:15:54.935Z,46.50
2019-05-09T20:18:24.334Z,46.60
2019-05-09T20:20:53.910Z,47.40
2019-05-09T20:23:23.840Z,47.50
2019-05-09T20:25:53.287Z,48.20
2019-05-09T20:28:24.321Z,48.40
2019-05-09T20:30:53.750Z,48.80
2019-05-09T20:33:22.986Z,49.10
2019-05-09T20:35:52.209Z,49.30
2019-05-09T20:38:21.573Z,49.60
2019-05-09T20:40:51.166Z,49.90
2019-05-09T20:43:20.643Z,50.10
2019-05-09T20:45:59.126Z,50.00
2019-05-09T20:48:28.547Z,49.80
2019-05-09T20:50:57.987Z,49.90
2019-05-09T20:53:28.499Z,50.10
2019-05-09T20:55:58.145Z,50.10
2019-05-09T20:58:29.906Z,50.20
2019-05-09T21:00:59.523Z,50.40
2019-05-09T21:03:29.103Z,50.40
2019-05-09T21:05:58.668Z,50.50
2019-05-09T21:08:28.156Z,50.50
2019-05-09T21:10:57.643Z,50.50
2019-05-09T21:13:27.155Z,50.60
2019-05-09T21:15:56.582Z,50.80
2019-05-09T21:18:26.439Z,50.80
2019-05-09T21:20:56.023Z,50.90
2019-05-09T21:23:25.482Z,51.10
2019-05-09T21:25:54.957Z,51.10
2019-05-09T21:28:24.451Z,51.20
2019-05-09T21:30:53.981Z,51.40
2019-05-09T21:33:23.677Z,51.40
2019-05-09T21:35:52.985Z,51.50
2019-05-09T21:38:22.610Z,51.60
2019-05-09T21:40:51.854Z,51.70
2019-05-09T21:43:21.064Z,51.70
2019-05-09T21:45:50.338Z,51.90
2019-05-09T21:48:19.673Z,52.00
2019-05-09T21:50:48.922Z,52.20
2019-05-09T21:53:18.223Z,52.40
2019-05-09T21:55:47.490Z,52.40
2019-05-09T21:58:16.791Z,52.50
2019-05-09T22:00:51.587Z,52.60
2019-05-09T22:03:22.088Z,52.70
2019-05-09T22:05:59.236Z,52.80
2019-05-09T22:08:28.518Z,52.90
2019-05-09T22:10:57.785Z,53.00
2019-05-09T22:13:27.140Z,53.10
2019-05-09T22:15:56.503Z,53.30
2019-05-09T22:18:27.788Z,53.40
2019-05-09T22:20:57.009Z,53.40
2019-05-09T22:23:26.219Z,53.50
2019-05-09T22:25:55.499Z,53.70
2019-05-09T22:28:24.786Z,53.80
2019-05-09T22:30:54.121Z,54.00
2019-05-09T22:33:23.505Z,54.10
2019-05-09T22:35:52.832Z,54.30
2019-05-09T22:38:22.280Z,54.20
2019-05-09T22:40:51.678Z,54.40
2019-05-09T22:43:21.077Z,54.70
2019-05-09T22:45:50.481Z,54.80
2019-05-09T22:48:19.691Z,54.80
2019-05-09T22:50:48.975Z,55.00
2019-05-09T22:53:27.034Z,55.00
2019-05-09T22:55:56.321Z,55.00
2019-05-09T22:58:25.598Z,55.10
2019-05-09T23:00:58.032Z,55.10
2019-05-09T23:03:27.908Z,55.20
2019-05-09T23:05:57.183Z,55.40
2019-05-09T23:08:26.541Z,55.50
2019-05-09T23:10:55.948Z,55.50
2019-05-09T23:13:25.200Z,55.60
2019-05-09T23:15:54.623Z,55.80
2019-05-09T23:18:24.078Z,55.90
2019-05-09T23:20:58.242Z,56.00
2019-05-09T23:23:32.816Z,56.10
2019-05-09T23:26:02.168Z,56.20
2019-05-09T23:28:31.847Z,56.30
2019-05-09T23:31:04.124Z,56.50
2019-05-09T23:33:37.548Z,56.60
2019-05-09T23:36:07.006Z,56.70
2019-05-09T23:39:06.473Z,56.80
2019-05-09T23:41:38.327Z,57.00
2019-05-09T23:44:07.613Z,57.00
2019-05-09T23:46:37.796Z,57.20
2019-05-09T23:49:07.235Z,57.40
2019-05-09T23:51:49.496Z,57.60
2019-05-09T23:54:45.713Z,57.60
2019-05-09T23:57:29.489Z,57.60
